sensor_id;sensor_type;location;lat;lon;timestamp;P1;durP1;ratioP1;P2;durP2;ratioP2
73474;SDS011;61711;52.266;10.542;2022-12-29T00:01:41;3.67;;;2.20;;
73474;SDS011;61711;52.266;10.542;2022-12-29T00:04:09;3.65;;;2.50;;
73474;SDS011;61711;52.266;10.542;2022-12-29T00:06:37;4.97;;;2.65;;
73474;SDS011;61711;52.266;10.542;2022-12-29T00:09:03;4.20;;;2.40;;
73474;SDS011;61711;52.266;10.542;2022-12-29T00:11:29;4.55;;;2.60;;
73474;SDS011;61711;52.266;10.542;2022-12-29T00:13:55;4.30;;;2.63;;
73474;SDS011;61711;52.266;10.542;2022-12-29T00:16:40;4.93;;;2.50;;
73474;SDS011;61711;52.266;10.542;2022-12-29T00:19:07;5.32;;;2.78;;
73474;SDS011;61711;52.266;10.542;2022-12-29T00:21:53;4.80;;;2.85;;
73474;SDS011;61711;52.266;10.542;2022-12-29T00:24:37;6.57;;;3.20;;
73474;SDS011;61711;52.266;10.542;2022-12-29T00:27:22;7.47;;;3.92;;
73474;SDS011;61711;52.266;10.542;2022-12-29T00:30:10;8.40;;;3.78;;
73474;SDS011;61711;52.266;10.542;2022-12-29T00:32:55;10.75;;;4.47;;
73474;SDS011;61711;52.266;10.542;2022-12-29T00:35:50;7.03;;;3.88;;
73474;SDS011;61711;52.266;10.542;2022-12-29T00:38:17;6.68;;;3.90;;
73474;SDS011;61711;52.266;10.542;2022-12-29T00:41:02;7.45;;;3.38;;
73474;SDS011;61711;52.266;10.542;2022-12-29T00:43:46;5.15;;;2.58;;
73474;SDS011;61711;52.266;10.542;2022-12-29T00:46:33;8.65;;;3.00;;
73474;SDS011;61711;52.266;10.542;2022-12-29T00:49:00;5.53;;;2.60;;
73474;SDS011;61711;52.266;10.542;2022-12-29T00:51:45;4.68;;;2.80;;
73474;SDS011;61711;52.266;10.542;2022-12-29T00:54:11;6.50;;;2.80;;
73474;SDS011;61711;52.266;10.542;2022-12-29T00:56:37;4.32;;;2.95;;
73474;SDS011;61711;52.266;10.542;2022-12-29T00:59:04;4.57;;;2.75;;
73474;SDS011;61711;52.266;10.542;2022-12-29T01:01:31;7.30;;;3.22;;
73474;SDS011;61711;52.266;10.542;2022-12-29T01:03:57;8.00;;;3.30;;
73474;SDS011;61711;52.266;10.542;2022-12-29T01:06:23;6.68;;;3.20;;
73474;SDS011;61711;52.266;10.542;2022-12-29T01:08:49;7.90;;;3.15;;
73474;SDS011;61711;52.266;10.542;2022-12-29T01:11:35;4.90;;;2.83;;
73474;SDS011;61711;52.266;10.542;2022-12-29T01:14:01;7.47;;;3.50;;
73474;SDS011;61711;52.266;10.542;2022-12-29T01:16:27;7.75;;;3.33;;
73474;SDS011;61711;52.266;10.542;2022-12-29T01:18:53;6.22;;;3.25;;
73474;SDS011;61711;52.266;10.542;2022-12-29T01:21:19;9.15;;;3.17;;
73474;SDS011;61711;52.266;10.542;2022-12-29T01:23:45;6.80;;;3.30;;
73474;SDS011;61711;52.266;10.542;2022-12-29T01:26:12;5.40;;;2.92;;
73474;SDS011;61711;52.266;10.542;2022-12-29T01:28:38;4.50;;;2.85;;
73474;SDS011;61711;52.266;10.542;2022-12-29T01:31:05;4.10;;;2.65;;
73474;SDS011;61711;52.266;10.542;2022-12-29T01:33:31;3.97;;;2.53;;
73474;SDS011;61711;52.266;10.542;2022-12-29T01:36:01;5.75;;;2.88;;
73474;SDS011;61711;52.266;10.542;2022-12-29T01:38:27;3.75;;;2.42;;
73474;SDS011;61711;52.266;10.542;2022-12-29T01:40:53;5.28;;;2.30;;
73474;SDS011;61711;52.266;10.542;2022-12-29T01:43:19;3.47;;;2.05;;
73474;SDS011;61711;52.266;10.542;2022-12-29T01:45:48;3.90;;;2.25;;
73474;SDS011;61711;52.266;10.542;2022-12-29T01:48:15;4.55;;;1.92;;
73474;SDS011;61711;52.266;10.542;2022-12-29T01:50:43;3.55;;;2.10;;
73474;SDS011;61711;52.266;10.542;2022-12-29T01:55:51;2.88;;;2.08;;
73474;SDS011;61711;52.266;10.542;2022-12-29T01:58:20;3.35;;;2.08;;
73474;SDS011;61711;52.266;10.542;2022-12-29T02:00:47;4.32;;;2.08;;
73474;SDS011;61711;52.266;10.542;2022-12-29T02:03:13;4.03;;;2.38;;
73474;SDS011;61711;52.266;10.542;2022-12-29T02:05:54;2.90;;;1.80;;
73474;SDS011;61711;52.266;10.542;2022-12-29T02:08:22;3.28;;;2.08;;
73474;SDS011;61711;52.266;10.542;2022-12-29T02:10:49;4.18;;;2.13;;
73474;SDS011;61711;52.266;10.542;2022-12-29T02:13:15;7.03;;;2.20;;
73474;SDS011;61711;52.266;10.542;2022-12-29T02:32:07;4.28;;;2.80;;
73474;SDS011;61711;52.266;10.542;2022-12-29T02:34:55;3.25;;;2.10;;
73474;SDS011;61711;52.266;10.542;2022-12-29T02:40:13;3.17;;;1.80;;
73474;SDS011;61711;52.266;10.542;2022-12-29T02:42:48;2.70;;;2.00;;
73474;SDS011;61711;52.266;10.542;2022-12-29T02:45:18;2.85;;;1.80;;
73474;SDS011;61711;52.266;10.542;2022-12-29T02:50:27;2.28;;;1.80;;
73474;SDS011;61711;52.266;10.542;2022-12-29T02:52:59;3.70;;;1.70;;
73474;SDS011;61711;52.266;10.542;2022-12-29T02:55:26;3.15;;;1.85;;
73474;SDS011;61711;52.266;10.542;2022-12-29T03:00:37;3.70;;;2.10;;
73474;SDS011;61711;52.266;10.542;2022-12-29T03:08:26;2.75;;;2.10;;
73474;SDS011;61711;52.266;10.542;2022-12-29T03:10:59;2.22;;;1.70;;
73474;SDS011;61711;52.266;10.542;2022-12-29T03:13:32;2.92;;;2.05;;
73474;SDS011;61711;52.266;10.542;2022-12-29T03:19:23;3.25;;;1.90;;
73474;SDS011;61711;52.266;10.542;2022-12-29T03:21:57;3.20;;;1.95;;
73474;SDS011;61711;52.266;10.542;2022-12-29T03:24:45;4.63;;;2.03;;
73474;SDS011;61711;52.266;10.542;2022-12-29T03:27:15;3.28;;;1.70;;
73474;SDS011;61711;52.266;10.542;2022-12-29T03:29:44;2.20;;;1.67;;
73474;SDS011;61711;52.266;10.542;2022-12-29T03:32:12;2.33;;;1.75;;
73474;SDS011;61711;52.266;10.542;2022-12-29T03:34:38;2.10;;;1.65;;
73474;SDS011;61711;52.266;10.542;2022-12-29T03:37:06;3.25;;;2.05;;
73474;SDS011;61711;52.266;10.542;2022-12-29T03:39:35;2.10;;;1.60;;
73474;SDS011;61711;52.266;10.542;2022-12-29T03:42:03;2.90;;;1.80;;
73474;SDS011;61711;52.266;10.542;2022-12-29T03:44:35;3.80;;;2.00;;
73474;SDS011;61711;52.266;10.542;2022-12-29T03:47:01;3.63;;;1.90;;
73474;SDS011;61711;52.266;10.542;2022-12-29T03:49:27;4.20;;;1.80;;
73474;SDS011;61711;52.266;10.542;2022-12-29T03:51:53;2.95;;;1.77;;
73474;SDS011;61711;52.266;10.542;2022-12-29T03:54:19;3.13;;;1.88;;
73474;SDS011;61711;52.266;10.542;2022-12-29T03:56:45;2.45;;;1.58;;
73474;SDS011;61711;52.266;10.542;2022-12-29T03:59:11;2.33;;;1.75;;
73474;SDS011;61711;52.266;10.542;2022-12-29T04:01:37;2.67;;;1.88;;
73474;SDS011;61711;52.266;10.542;2022-12-29T04:04:03;2.58;;;1.83;;
73474;SDS011;61711;52.266;10.542;2022-12-29T04:06:29;3.90;;;2.00;;
73474;SDS011;61711;52.266;10.542;2022-12-29T04:08:55;3.65;;;2.05;;
73474;SDS011;61711;52.266;10.542;2022-12-29T04:11:21;2.53;;;1.60;;
73474;SDS011;61711;52.266;10.542;2022-12-29T04:13:47;3.97;;;1.85;;
73474;SDS011;61711;52.266;10.542;2022-12-29T04:16:13;8.93;;;2.15;;
73474;SDS011;61711;52.266;10.542;2022-12-29T04:18:39;2.65;;;1.77;;
73474;SDS011;61711;52.266;10.542;2022-12-29T04:21:05;2.70;;;1.90;;
73474;SDS011;61711;52.266;10.542;2022-12-29T04:23:35;3.13;;;1.67;;
73474;SDS011;61711;52.266;10.542;2022-12-29T04:26:02;3.10;;;1.67;;
73474;SDS011;61711;52.266;10.542;2022-12-29T04:28:28;2.13;;;1.63;;
73474;SDS011;61711;52.266;10.542;2022-12-29T04:30:54;2.05;;;1.60;;
73474;SDS011;61711;52.266;10.542;2022-12-29T04:33:21;2.60;;;1.65;;
73474;SDS011;61711;52.266;10.542;2022-12-29T04:35:47;2.42;;;1.60;;
73474;SDS011;61711;52.266;10.542;2022-12-29T04:38:13;2.55;;;1.58;;
73474;SDS011;61711;52.266;10.542;2022-12-29T04:40:41;3.83;;;1.80;;
73474;SDS011;61711;52.266;10.542;2022-12-29T04:43:07;2.92;;;1.65;;
73474;SDS011;61711;52.266;10.542;2022-12-29T04:45:33;1.83;;;1.52;;
73474;SDS011;61711;52.266;10.542;2022-12-29T04:47:59;1.83;;;1.40;;
73474;SDS011;61711;52.266;10.542;2022-12-29T04:50:25;2.28;;;1.40;;
73474;SDS011;61711;52.266;10.542;2022-12-29T04:52:51;3.22;;;1.58;;
73474;SDS011;61711;52.266;10.542;2022-12-29T04:55:17;3.20;;;1.77;;
73474;SDS011;61711;52.266;10.542;2022-12-29T04:57:43;2.53;;;1.55;;
73474;SDS011;61711;52.266;10.542;2022-12-29T05:00:09;1.67;;;1.48;;
73474;SDS011;61711;52.266;10.542;2022-12-29T05:02:36;2.28;;;1.52;;
73474;SDS011;61711;52.266;10.542;2022-12-29T05:05:02;2.60;;;1.50;;
73474;SDS011;61711;52.266;10.542;2022-12-29T05:07:28;10.10;;;6.22;;
73474;SDS011;61711;52.266;10.542;2022-12-29T05:09:54;4.18;;;2.30;;
73474;SDS011;61711;52.266;10.542;2022-12-29T05:12:20;2.22;;;1.80;;
73474;SDS011;61711;52.266;10.542;2022-12-29T05:14:46;3.30;;;1.83;;
73474;SDS011;61711;52.266;10.542;2022-12-29T05:17:12;4.88;;;1.88;;
73474;SDS011;61711;52.266;10.542;2022-12-29T05:19:41;3.10;;;1.92;;
73474;SDS011;61711;52.266;10.542;2022-12-29T05:22:07;2.88;;;1.70;;
73474;SDS011;61711;52.266;10.542;2022-12-29T05:24:33;4.25;;;1.95;;
73474;SDS011;61711;52.266;10.542;2022-12-29T05:26:59;3.13;;;1.90;;
73474;SDS011;61711;52.266;10.542;2022-12-29T05:29:25;2.22;;;1.55;;
73474;SDS011;61711;52.266;10.542;2022-12-29T05:31:51;4.95;;;1.70;;
73474;SDS011;61711;52.266;10.542;2022-12-29T05:34:17;4.40;;;1.80;;
73474;SDS011;61711;52.266;10.542;2022-12-29T05:36:43;3.65;;;1.90;;
73474;SDS011;61711;52.266;10.542;2022-12-29T05:39:09;4.55;;;2.20;;
73474;SDS011;61711;52.266;10.542;2022-12-29T05:41:35;5.00;;;2.42;;
73474;SDS011;61711;52.266;10.542;2022-12-29T05:44:01;5.28;;;2.40;;
73474;SDS011;61711;52.266;10.542;2022-12-29T05:46:27;5.40;;;2.67;;
73474;SDS011;61711;52.266;10.542;2022-12-29T05:48:53;2.92;;;1.83;;
73474;SDS011;61711;52.266;10.542;2022-12-29T05:51:19;1.67;;;1.40;;
73474;SDS011;61711;52.266;10.542;2022-12-29T05:53:45;2.35;;;1.17;;
73474;SDS011;61711;52.266;10.542;2022-12-29T05:56:11;2.00;;;1.20;;
73474;SDS011;61711;52.266;10.542;2022-12-29T05:58:37;1.95;;;1.25;;
73474;SDS011;61711;52.266;10.542;2022-12-29T06:01:03;2.97;;;1.25;;
73474;SDS011;61711;52.266;10.542;2022-12-29T06:03:29;1.70;;;0.90;;
73474;SDS011;61711;52.266;10.542;2022-12-29T06:05:55;0.82;;;0.73;;
73474;SDS011;61711;52.266;10.542;2022-12-29T06:08:21;1.60;;;1.00;;
73474;SDS011;61711;52.266;10.542;2022-12-29T06:10:47;2.85;;;0.90;;
73474;SDS011;61711;52.266;10.542;2022-12-29T06:13:13;1.33;;;1.00;;
73474;SDS011;61711;52.266;10.542;2022-12-29T06:15:39;1.30;;;1.20;;
73474;SDS011;61711;52.266;10.542;2022-12-29T06:18:05;1.13;;;0.85;;
73474;SDS011;61711;52.266;10.542;2022-12-29T06:20:31;1.70;;;1.20;;
73474;SDS011;61711;52.266;10.542;2022-12-29T06:22:57;2.65;;;1.17;;
73474;SDS011;61711;52.266;10.542;2022-12-29T06:25:23;1.23;;;0.95;;
73474;SDS011;61711;52.266;10.542;2022-12-29T06:27:49;1.00;;;0.90;;
73474;SDS011;61711;52.266;10.542;2022-12-29T06:30:15;2.00;;;0.98;;
73474;SDS011;61711;52.266;10.542;2022-12-29T06:32:42;1.67;;;0.90;;
73474;SDS011;61711;52.266;10.542;2022-12-29T06:35:08;3.13;;;1.00;;
73474;SDS011;61711;52.266;10.542;2022-12-29T06:37:34;1.70;;;0.90;;
73474;SDS011;61711;52.266;10.542;2022-12-29T06:40:00;0.90;;;0.80;;
73474;SDS011;61711;52.266;10.542;2022-12-29T06:42:26;1.02;;;0.90;;
73474;SDS011;61711;52.266;10.542;2022-12-29T06:44:53;2.45;;;0.90;;
73474;SDS011;61711;52.266;10.542;2022-12-29T06:47:19;2.03;;;1.17;;
73474;SDS011;61711;52.266;10.542;2022-12-29T06:49:45;1.30;;;0.98;;
73474;SDS011;61711;52.266;10.542;2022-12-29T06:52:11;0.88;;;0.80;;
73474;SDS011;61711;52.266;10.542;2022-12-29T06:54:37;2.08;;;0.70;;
73474;SDS011;61711;52.266;10.542;2022-12-29T06:57:03;0.90;;;0.73;;
73474;SDS011;61711;52.266;10.542;2022-12-29T06:59:29;0.80;;;0.63;;
73474;SDS011;61711;52.266;10.542;2022-12-29T07:01:55;1.45;;;0.90;;
73474;SDS011;61711;52.266;10.542;2022-12-29T07:04:21;0.80;;;0.60;;
73474;SDS011;61711;52.266;10.542;2022-12-29T07:06:47;0.70;;;0.60;;
73474;SDS011;61711;52.266;10.542;2022-12-29T07:09:13;1.00;;;0.73;;
73474;SDS011;61711;52.266;10.542;2022-12-29T07:11:39;0.80;;;0.63;;
73474;SDS011;61711;52.266;10.542;2022-12-29T07:14:05;0.73;;;0.70;;
73474;SDS011;61711;52.266;10.542;2022-12-29T07:16:31;1.08;;;0.70;;
73474;SDS011;61711;52.266;10.542;2022-12-29T07:18:59;1.27;;;0.95;;
73474;SDS011;61711;52.266;10.542;2022-12-29T07:21:25;1.38;;;0.80;;
73474;SDS011;61711;52.266;10.542;2022-12-29T07:23:51;0.90;;;0.70;;
73474;SDS011;61711;52.266;10.542;2022-12-29T07:26:17;0.80;;;0.77;;
73474;SDS011;61711;52.266;10.542;2022-12-29T07:28:43;0.70;;;0.70;;
73474;SDS011;61711;52.266;10.542;2022-12-29T07:31:12;1.30;;;0.80;;
73474;SDS011;61711;52.266;10.542;2022-12-29T07:33:40;1.35;;;0.80;;
73474;SDS011;61711;52.266;10.542;2022-12-29T07:36:07;1.00;;;0.85;;
73474;SDS011;61711;52.266;10.542;2022-12-29T07:38:33;0.85;;;0.70;;
73474;SDS011;61711;52.266;10.542;2022-12-29T07:40:59;0.93;;;0.60;;
73474;SDS011;61711;52.266;10.542;2022-12-29T07:43:25;0.80;;;0.70;;
73474;SDS011;61711;52.266;10.542;2022-12-29T07:45:51;2.38;;;1.10;;
73474;SDS011;61711;52.266;10.542;2022-12-29T07:48:17;2.30;;;0.90;;
73474;SDS011;61711;52.266;10.542;2022-12-29T07:50:43;0.80;;;0.70;;
73474;SDS011;61711;52.266;10.542;2022-12-29T07:53:09;0.70;;;0.70;;
73474;SDS011;61711;52.266;10.542;2022-12-29T07:55:35;0.90;;;0.77;;
73474;SDS011;61711;52.266;10.542;2022-12-29T07:58:01;1.25;;;0.80;;
73474;SDS011;61711;52.266;10.542;2022-12-29T08:00:27;1.40;;;0.68;;
73474;SDS011;61711;52.266;10.542;2022-12-29T08:02:53;1.48;;;0.70;;
73474;SDS011;61711;52.266;10.542;2022-12-29T08:05:19;2.30;;;1.13;;
73474;SDS011;61711;52.266;10.542;2022-12-29T08:07:45;1.33;;;1.08;;
73474;SDS011;61711;52.266;10.542;2022-12-29T08:10:12;3.05;;;1.30;;
73474;SDS011;61711;52.266;10.542;2022-12-29T08:12:38;2.97;;;1.52;;
73474;SDS011;61711;52.266;10.542;2022-12-29T08:15:05;3.42;;;1.30;;
73474;SDS011;61711;52.266;10.542;2022-12-29T08:17:31;4.65;;;1.30;;
73474;SDS011;61711;52.266;10.542;2022-12-29T08:19:57;3.83;;;1.38;;
73474;SDS011;61711;52.266;10.542;2022-12-29T08:22:23;1.40;;;1.00;;
73474;SDS011;61711;52.266;10.542;2022-12-29T08:24:50;1.42;;;0.90;;
73474;SDS011;61711;52.266;10.542;2022-12-29T08:27:16;1.15;;;0.98;;
73474;SDS011;61711;52.266;10.542;2022-12-29T08:29:42;1.20;;;0.80;;
73474;SDS011;61711;52.266;10.542;2022-12-29T08:32:08;0.85;;;0.80;;
73474;SDS011;61711;52.266;10.542;2022-12-29T08:34:34;3.00;;;0.80;;
73474;SDS011;61711;52.266;10.542;2022-12-29T08:37:00;1.30;;;1.00;;
73474;SDS011;61711;52.266;10.542;2022-12-29T08:39:26;1.25;;;0.65;;
73474;SDS011;61711;52.266;10.542;2022-12-29T08:41:52;1.40;;;0.90;;
73474;SDS011;61711;52.266;10.542;2022-12-29T08:44:18;1.05;;;0.90;;
73474;SDS011;61711;52.266;10.542;2022-12-29T08:46:44;3.00;;;0.93;;
73474;SDS011;61711;52.266;10.542;2022-12-29T08:49:10;2.90;;;1.20;;
73474;SDS011;61711;52.266;10.542;2022-12-29T08:51:36;2.03;;;1.27;;
73474;SDS011;61711;52.266;10.542;2022-12-29T08:54:02;2.72;;;1.15;;
73474;SDS011;61711;52.266;10.542;2022-12-29T08:56:28;2.83;;;1.40;;
73474;SDS011;61711;52.266;10.542;2022-12-29T08:58:54;3.25;;;1.45;;
73474;SDS011;61711;52.266;10.542;2022-12-29T09:01:20;2.17;;;1.45;;
73474;SDS011;61711;52.266;10.542;2022-12-29T09:03:46;3.30;;;1.60;;
73474;SDS011;61711;52.266;10.542;2022-12-29T09:06:13;2.47;;;1.30;;
73474;SDS011;61711;52.266;10.542;2022-12-29T09:08:40;2.83;;;1.60;;
73474;SDS011;61711;52.266;10.542;2022-12-29T09:11:07;4.15;;;1.58;;
73474;SDS011;61711;52.266;10.542;2022-12-29T09:13:33;2.00;;;1.58;;
73474;SDS011;61711;52.266;10.542;2022-12-29T09:15:59;4.65;;;2.05;;
73474;SDS011;61711;52.266;10.542;2022-12-29T09:18:25;3.95;;;2.25;;
73474;SDS011;61711;52.266;10.542;2022-12-29T09:20:58;5.18;;;2.13;;
73474;SDS011;61711;52.266;10.542;2022-12-29T09:23:24;3.67;;;2.08;;
73474;SDS011;61711;52.266;10.542;2022-12-29T09:25:50;3.25;;;1.90;;
73474;SDS011;61711;52.266;10.542;2022-12-29T09:28:17;3.42;;;1.75;;
73474;SDS011;61711;52.266;10.542;2022-12-29T09:30:43;2.83;;;1.60;;
73474;SDS011;61711;52.266;10.542;2022-12-29T09:33:09;5.22;;;1.58;;
73474;SDS011;61711;52.266;10.542;2022-12-29T09:35:35;4.13;;;1.52;;
73474;SDS011;61711;52.266;10.542;2022-12-29T09:38:01;5.10;;;1.50;;
73474;SDS011;61711;52.266;10.542;2022-12-29T09:40:28;1.40;;;1.10;;
73474;SDS011;61711;52.266;10.542;2022-12-29T09:43:01;3.03;;;1.23;;
73474;SDS011;61711;52.266;10.542;2022-12-29T09:45:30;2.10;;;1.20;;
73474;SDS011;61711;52.266;10.542;2022-12-29T09:47:58;1.35;;;1.20;;
73474;SDS011;61711;52.266;10.542;2022-12-29T09:50:28;1.70;;;1.20;;
73474;SDS011;61711;52.266;10.542;2022-12-29T09:55:23;1.50;;;1.10;;
73474;SDS011;61711;52.266;10.542;2022-12-29T09:57:57;2.13;;;1.20;;
73474;SDS011;61711;52.266;10.542;2022-12-29T10:03:02;1.65;;;1.00;;
73474;SDS011;61711;52.266;10.542;2022-12-29T10:05:43;3.00;;;1.42;;
73474;SDS011;61711;52.266;10.542;2022-12-29T10:10:57;3.45;;;1.20;;
73474;SDS011;61711;52.266;10.542;2022-12-29T10:16:22;1.38;;;1.15;;
73474;SDS011;61711;52.266;10.542;2022-12-29T10:18:59;1.83;;;1.15;;
73474;SDS011;61711;52.266;10.542;2022-12-29T10:23:53;1.65;;;1.02;;
73474;SDS011;61711;52.266;10.542;2022-12-29T10:26:21;2.28;;;1.10;;
73474;SDS011;61711;52.266;10.542;2022-12-29T10:28:58;2.08;;;0.93;;
73474;SDS011;61711;52.266;10.542;2022-12-29T10:31:33;1.25;;;1.00;;
73474;SDS011;61711;52.266;10.542;2022-12-29T10:34:02;2.25;;;1.00;;
73474;SDS011;61711;52.266;10.542;2022-12-29T10:44:27;1.88;;;0.90;;
73474;SDS011;61711;52.266;10.542;2022-12-29T10:46:56;2.10;;;1.00;;
73474;SDS011;61711;52.266;10.542;2022-12-29T10:49:23;2.90;;;1.15;;
73474;SDS011;61711;52.266;10.542;2022-12-29T10:51:50;2.47;;;1.25;;
73474;SDS011;61711;52.266;10.542;2022-12-29T10:54:26;3.45;;;1.13;;
73474;SDS011;61711;52.266;10.542;2022-12-29T10:56:58;2.13;;;1.30;;
73474;SDS011;61711;52.266;10.542;2022-12-29T10:59:29;3.47;;;1.60;;
73474;SDS011;61711;52.266;10.542;2022-12-29T11:04:31;3.60;;;1.60;;
73474;SDS011;61711;52.266;10.542;2022-12-29T11:06:59;3.88;;;1.73;;
73474;SDS011;61711;52.266;10.542;2022-12-29T11:09:29;2.72;;;1.60;;
73474;SDS011;61711;52.266;10.542;2022-12-29T11:11:55;2.17;;;1.20;;
73474;SDS011;61711;52.266;10.542;2022-12-29T11:14:28;1.80;;;1.10;;
73474;SDS011;61711;52.266;10.542;2022-12-29T11:19:22;2.33;;;0.75;;
73474;SDS011;61711;52.266;10.542;2022-12-29T11:21:48;2.00;;;1.00;;
73474;SDS011;61711;52.266;10.542;2022-12-29T11:24:19;2.60;;;1.10;;
73474;SDS011;61711;52.266;10.542;2022-12-29T11:26:45;2.47;;;0.80;;
73474;SDS011;61711;52.266;10.542;2022-12-29T11:29:22;5.57;;;0.90;;
73474;SDS011;61711;52.266;10.542;2022-12-29T11:31:55;1.80;;;0.95;;
73474;SDS011;61711;52.266;10.542;2022-12-29T11:36:50;3.05;;;1.13;;
73474;SDS011;61711;52.266;10.542;2022-12-29T11:42:01;3.30;;;1.30;;
73474;SDS011;61711;52.266;10.542;2022-12-29T11:44:29;2.58;;;1.33;;
73474;SDS011;61711;52.266;10.542;2022-12-29T11:46:57;2.55;;;1.00;;
73474;SDS011;61711;52.266;10.542;2022-12-29T11:49:23;1.63;;;0.88;;
73474;SDS011;61711;52.266;10.542;2022-12-29T11:51:51;1.63;;;0.80;;
73474;SDS011;61711;52.266;10.542;2022-12-29T11:56:49;2.28;;;0.77;;
73474;SDS011;61711;52.266;10.542;2022-12-29T12:04:46;0.85;;;0.80;;
73474;SDS011;61711;52.266;10.542;2022-12-29T12:07:18;2.97;;;1.13;;
73474;SDS011;61711;52.266;10.542;2022-12-29T12:09:48;2.00;;;0.90;;
73474;SDS011;61711;52.266;10.542;2022-12-29T12:13:18;1.35;;;1.00;;
73474;SDS011;61711;52.266;10.542;2022-12-29T12:18:18;3.28;;;1.05;;
73474;SDS011;61711;52.266;10.542;2022-12-29T12:20:49;4.18;;;0.90;;
73474;SDS011;61711;52.266;10.542;2022-12-29T12:23:22;1.63;;;0.90;;
73474;SDS011;61711;52.266;10.542;2022-12-29T12:26:09;2.35;;;1.10;;
73474;SDS011;61711;52.266;10.542;2022-12-29T12:29:19;2.70;;;1.20;;
73474;SDS011;61711;52.266;10.542;2022-12-29T12:34:13;1.80;;;0.75;;
73474;SDS011;61711;52.266;10.542;2022-12-29T12:36:58;3.17;;;0.77;;
73474;SDS011;61711;52.266;10.542;2022-12-29T12:44:45;3.08;;;0.90;;
73474;SDS011;61711;52.266;10.542;2022-12-29T12:52:29;1.65;;;0.98;;
73474;SDS011;61711;52.266;10.542;2022-12-29T12:58:05;1.52;;;0.90;;
73474;SDS011;61711;52.266;10.542;2022-12-29T13:00:42;2.05;;;1.00;;
73474;SDS011;61711;52.266;10.542;2022-12-29T13:03:13;4.00;;;1.02;;
73474;SDS011;61711;52.266;10.542;2022-12-29T13:08:48;3.92;;;1.30;;
73474;SDS011;61711;52.266;10.542;2022-12-29T13:16:41;3.70;;;1.00;;
73474;SDS011;61711;52.266;10.542;2022-12-29T13:19:11;2.67;;;1.30;;
73474;SDS011;61711;52.266;10.542;2022-12-29T13:25:21;2.65;;;1.10;;
73474;SDS011;61711;52.266;10.542;2022-12-29T13:27:22;1.65;;;0.90;;
73474;SDS011;61711;52.266;10.542;2022-12-29T13:29:56;2.17;;;1.00;;
73474;SDS011;61711;52.266;10.542;2022-12-29T13:37:41;5.40;;;1.48;;
73474;SDS011;61711;52.266;10.542;2022-12-29T13:40:13;3.63;;;1.20;;
73474;SDS011;61711;52.266;10.542;2022-12-29T13:42:40;2.00;;;1.20;;
73474;SDS011;61711;52.266;10.542;2022-12-29T13:45:12;3.15;;;1.35;;
73474;SDS011;61711;52.266;10.542;2022-12-29T13:47:40;1.63;;;1.10;;
73474;SDS011;61711;52.266;10.542;2022-12-29T13:50:21;1.85;;;0.95;;
73474;SDS011;61711;52.266;10.542;2022-12-29T13:53:11;1.63;;;1.10;;
73474;SDS011;61711;52.266;10.542;2022-12-29T14:00:35;2.47;;;1.25;;
73474;SDS011;61711;52.266;10.542;2022-12-29T14:03:11;2.92;;;1.08;;
73474;SDS011;61711;52.266;10.542;2022-12-29T14:05:38;2.63;;;1.20;;
73474;SDS011;61711;52.266;10.542;2022-12-29T14:08:04;3.58;;;1.30;;
73474;SDS011;61711;52.266;10.542;2022-12-29T14:10:35;3.75;;;1.35;;
73474;SDS011;61711;52.266;10.542;2022-12-29T14:15:28;4.40;;;1.10;;
73474;SDS011;61711;52.266;10.542;2022-12-29T14:18:04;2.22;;;1.02;;
73474;SDS011;61711;52.266;10.542;2022-12-29T14:20:31;4.88;;;1.30;;
73474;SDS011;61711;52.266;10.542;2022-12-29T14:28:23;2.83;;;1.35;;
73474;SDS011;61711;52.266;10.542;2022-12-29T14:30:51;2.78;;;1.30;;
73474;SDS011;61711;52.266;10.542;2022-12-29T14:33:18;3.63;;;1.45;;
73474;SDS011;61711;52.266;10.542;2022-12-29T14:35:44;3.00;;;1.27;;
73474;SDS011;61711;52.266;10.542;2022-12-29T14:38:15;2.70;;;1.10;;
73474;SDS011;61711;52.266;10.542;2022-12-29T14:40:42;4.03;;;1.30;;
73474;SDS011;61711;52.266;10.542;2022-12-29T14:43:11;5.05;;;1.50;;
73474;SDS011;61711;52.266;10.542;2022-12-29T14:45:38;4.18;;;1.20;;
73474;SDS011;61711;52.266;10.542;2022-12-29T14:48:20;4.25;;;1.40;;
73474;SDS011;61711;52.266;10.542;2022-12-29T14:50:47;3.03;;;1.33;;
73474;SDS011;61711;52.266;10.542;2022-12-29T14:55:58;3.30;;;1.30;;
73474;SDS011;61711;52.266;10.542;2022-12-29T14:58:28;2.80;;;1.20;;
73474;SDS011;61711;52.266;10.542;2022-12-29T15:00:55;5.43;;;1.35;;
73474;SDS011;61711;52.266;10.542;2022-12-29T15:03:23;4.10;;;2.40;;
73474;SDS011;61711;52.266;10.542;2022-12-29T15:06:04;5.30;;;1.67;;
73474;SDS011;61711;52.266;10.542;2022-12-29T15:08:32;5.90;;;2.22;;
73474;SDS011;61711;52.266;10.542;2022-12-29T15:11:03;3.67;;;1.60;;
73474;SDS011;61711;52.266;10.542;2022-12-29T15:13:34;4.68;;;1.80;;
73474;SDS011;61711;52.266;10.542;2022-12-29T15:16:01;6.30;;;1.98;;
73474;SDS011;61711;52.266;10.542;2022-12-29T15:18:31;5.95;;;1.63;;
73474;SDS011;61711;52.266;10.542;2022-12-29T15:21:04;5.53;;;1.50;;
73474;SDS011;61711;52.266;10.542;2022-12-29T15:23:31;2.72;;;1.35;;
73474;SDS011;61711;52.266;10.542;2022-12-29T15:28:25;2.88;;;1.75;;
73474;SDS011;61711;52.266;10.542;2022-12-29T15:33:18;5.00;;;1.70;;
73474;SDS011;61711;52.266;10.542;2022-12-29T15:35:44;5.22;;;1.60;;
73474;SDS011;61711;52.266;10.542;2022-12-29T15:38:16;3.78;;;1.58;;
73474;SDS011;61711;52.266;10.542;2022-12-29T15:40:45;2.58;;;1.35;;
73474;SDS011;61711;52.266;10.542;2022-12-29T15:43:27;4.53;;;1.55;;
73474;SDS011;61711;52.266;10.542;2022-12-29T15:45:54;3.50;;;1.67;;
73474;SDS011;61711;52.266;10.542;2022-12-29T15:48:22;7.93;;;2.15;;
73474;SDS011;61711;52.266;10.542;2022-12-29T15:50:48;3.35;;;1.25;;
73474;SDS011;61711;52.266;10.542;2022-12-29T15:53:19;5.55;;;1.27;;
73474;SDS011;61711;52.266;10.542;2022-12-29T15:55:49;4.55;;;1.50;;
73474;SDS011;61711;52.266;10.542;2022-12-29T15:58:26;4.15;;;1.27;;
73474;SDS011;61711;52.266;10.542;2022-12-29T16:00:58;3.63;;;1.17;;
73474;SDS011;61711;52.266;10.542;2022-12-29T16:03:24;3.85;;;1.35;;
73474;SDS011;61711;52.266;10.542;2022-12-29T16:05:52;2.92;;;1.08;;
73474;SDS011;61711;52.266;10.542;2022-12-29T16:08:24;4.55;;;2.10;;
73474;SDS011;61711;52.266;10.542;2022-12-29T16:10:53;4.03;;;1.30;;
73474;SDS011;61711;52.266;10.542;2022-12-29T16:15:47;9.35;;;4.28;;
73474;SDS011;61711;52.266;10.542;2022-12-29T16:18:23;5.95;;;2.53;;
73474;SDS011;61711;52.266;10.542;2022-12-29T16:20:50;4.13;;;1.70;;
73474;SDS011;61711;52.266;10.542;2022-12-29T16:23:21;4.20;;;1.75;;
73474;SDS011;61711;52.266;10.542;2022-12-29T16:25:48;2.38;;;1.25;;
73474;SDS011;61711;52.266;10.542;2022-12-29T16:28:17;2.53;;;1.40;;
73474;SDS011;61711;52.266;10.542;2022-12-29T16:30:44;2.42;;;1.13;;
73474;SDS011;61711;52.266;10.542;2022-12-29T16:33:28;5.13;;;1.23;;
73474;SDS011;61711;52.266;10.542;2022-12-29T16:35:54;2.90;;;1.23;;
73474;SDS011;61711;52.266;10.542;2022-12-29T16:38:21;5.47;;;1.42;;
73474;SDS011;61711;52.266;10.542;2022-12-29T16:40:51;5.05;;;1.60;;
73474;SDS011;61711;52.266;10.542;2022-12-29T16:43:28;3.05;;;1.50;;
73474;SDS011;61711;52.266;10.542;2022-12-29T16:48:27;3.92;;;1.55;;
73474;SDS011;61711;52.266;10.542;2022-12-29T16:51:04;4.38;;;1.70;;
73474;SDS011;61711;52.266;10.542;2022-12-29T16:53:35;2.92;;;1.60;;
73474;SDS011;61711;52.266;10.542;2022-12-29T16:56:23;5.30;;;1.77;;
73474;SDS011;61711;52.266;10.542;2022-12-29T16:58:58;4.10;;;1.60;;
73474;SDS011;61711;52.266;10.542;2022-12-29T17:01:25;4.38;;;1.42;;